createdAt,value
2022-09-07T00:01:49.521Z,3.58
2022-09-07T00:03:57.239Z,3.90
2022-09-07T00:05:59.167Z,3.40
2022-09-07T00:08:01.277Z,4.15
2022-09-07T00:10:04.662Z,3.53
2022-09-07T00:12:06.164Z,4.00
2022-09-07T00:14:08.109Z,3.63
2022-09-07T00:16:18.880Z,5.65
2022-09-07T00:18:21.126Z,5.50
2022-09-07T00:20:23.264Z,5.72
2022-09-07T00:22:24.954Z,4.25
2022-09-07T00:24:27.837Z,4.15
2022-09-07T00:26:30.818Z,4.20
2022-09-07T00:28:32.657Z,3.60
2022-09-07T00:30:35.210Z,4.05
2022-09-07T00:32:36.763Z,4.32
2022-09-07T00:34:38.383Z,5.65
2022-09-07T00:36:40.144Z,3.75
2022-09-07T00:38:41.840Z,4.43
2022-09-07T00:40:43.471Z,4.00
2022-09-07T00:42:44.961Z,4.50
2022-09-07T00:45:06.765Z,3.97
2022-09-07T00:47:28.578Z,3.95
2022-09-07T00:49:32.464Z,3.80
2022-09-07T00:51:48.278Z,3.85
2022-09-07T00:53:55.940Z,4.10
2022-09-07T00:56:01.345Z,3.75
2022-09-07T00:58:03.789Z,3.80
2022-09-07T01:00:06.037Z,3.90
2022-09-07T01:02:08.243Z,3.90
2022-09-07T01:04:10.266Z,3.97
2022-09-07T01:06:17.168Z,6.35
2022-09-07T01:08:18.968Z,4.65
2022-09-07T01:10:23.825Z,4.68
2022-09-07T01:12:25.401Z,4.35
2022-09-07T01:14:33.652Z,4.45
2022-09-07T01:16:37.942Z,4.18
2022-09-07T01:19:06.118Z,3.75
2022-09-07T01:21:47.353Z,3.90
2022-09-07T01:24:27.088Z,4.82
2022-09-07T01:26:59.025Z,4.32
2022-09-07T01:29:29.818Z,5.10
2022-09-07T01:31:45.549Z,4.65
2022-09-07T01:34:10.149Z,5.25
2022-09-07T01:36:33.118Z,4.47
2022-09-07T01:38:44.488Z,4.60
2022-09-07T01:41:04.669Z,4.40
2022-09-07T01:43:19.313Z,5.15
2022-09-07T01:45:28.961Z,4.57
2022-09-07T01:47:40.454Z,4.15
2022-09-07T01:49:59.697Z,4.68
2022-09-07T01:52:09.032Z,4.45
2022-09-07T01:54:24.155Z,5.78
2022-09-07T01:56:48.132Z,4.18
2022-09-07T01:58:57.675Z,4.43
2022-09-07T02:01:06.068Z,4.53
2022-09-07T02:03:14.837Z,4.35
2022-09-07T02:05:58.584Z,4.53
2022-09-07T02:08:12.003Z,5.30
2022-09-07T02:10:22.492Z,3.88
2022-09-07T02:12:53.046Z,5.50
2022-09-07T02:15:02.457Z,5.10
2022-09-07T02:17:22.436Z,5.40
2022-09-07T02:19:27.433Z,4.10
2022-09-07T02:21:38.405Z,4.88
2022-09-07T02:23:51.279Z,3.72
2022-09-07T02:26:16.961Z,4.45
2022-09-07T02:28:23.734Z,4.30
2022-09-07T02:30:25.353Z,4.45
2022-09-07T02:32:26.939Z,4.82
2022-09-07T02:34:31.657Z,4.53
2022-09-07T02:36:40.705Z,4.32
2022-09-07T02:38:42.217Z,4.55
2022-09-07T02:40:44.068Z,4.85
2022-09-07T02:42:48.175Z,4.53
2022-09-07T02:44:54.781Z,4.43
2022-09-07T02:47:08.384Z,4.57
2022-09-07T02:49:12.662Z,4.57
2022-09-07T02:51:20.025Z,5.20
2022-09-07T02:53:31.079Z,5.15
2022-09-07T02:55:43.194Z,3.60
2022-09-07T02:58:16.498Z,4.55
2022-09-07T03:00:26.219Z,4.65
2022-09-07T03:02:58.319Z,4.53
2022-09-07T03:05:16.769Z,4.25
2022-09-07T03:07:24.219Z,4.82
2022-09-07T03:09:29.181Z,5.10
2022-09-07T03:11:30.936Z,4.65
2022-09-07T03:13:36.273Z,5.38
2022-09-07T03:15:37.930Z,4.53
2022-09-07T03:17:40.749Z,4.60
2022-09-07T03:19:42.421Z,5.60
2022-09-07T03:21:44.414Z,4.75
2022-09-07T03:23:49.919Z,4.68
2022-09-07T03:25:53.349Z,4.47
2022-09-07T03:27:57.914Z,4.80
2022-09-07T03:30:00.031Z,4.93
2022-09-07T03:32:01.629Z,4.90
2022-09-07T03:34:03.810Z,5.22
2022-09-07T03:36:07.850Z,5.35
2022-09-07T03:38:11.160Z,4.72
2022-09-07T03:40:14.293Z,4.55
2022-09-07T03:42:15.910Z,4.35
2022-09-07T03:44:17.503Z,4.25
2022-09-07T03:46:19.563Z,4.65
2022-09-07T03:48:21.252Z,4.38
2022-09-07T03:50:22.899Z,4.40
2022-09-07T03:52:24.432Z,4.25
2022-09-07T03:54:26.302Z,5.28
2022-09-07T03:56:29.164Z,5.20
2022-09-07T03:58:33.136Z,4.80
2022-09-07T04:00:35.812Z,5.03
2022-09-07T04:02:37.391Z,4.60
2022-09-07T04:04:39.197Z,4.68
2022-09-07T04:06:40.951Z,5.70
2022-09-07T04:08:43.636Z,4.28
2022-09-07T04:10:45.227Z,4.57
2022-09-07T04:12:46.941Z,4.32
2022-09-07T04:14:51.283Z,4.45
2022-09-07T04:16:52.980Z,5.55
2022-09-07T04:18:54.866Z,4.30
2022-09-07T04:20:58.663Z,4.43
2022-09-07T04:23:00.180Z,5.38
2022-09-07T04:25:04.213Z,4.38
2022-09-07T04:27:05.636Z,5.20
2022-09-07T04:29:07.300Z,4.72
2022-09-07T04:31:09.304Z,5.03
2022-09-07T04:33:11.515Z,4.70
2022-09-07T04:35:13.546Z,4.30
2022-09-07T04:37:15.033Z,4.70
2022-09-07T04:39:16.740Z,5.53
2022-09-07T04:41:19.446Z,4.90
2022-09-07T04:43:21.028Z,4.65
2022-09-07T04:45:22.646Z,4.82
2022-09-07T04:47:24.271Z,8.00
2022-09-07T04:49:25.946Z,5.63
2022-09-07T04:51:29.747Z,8.05
2022-09-07T04:53:31.731Z,5.90
2022-09-07T04:55:33.390Z,7.20
2022-09-07T04:57:35.020Z,6.90
2022-09-07T04:59:36.563Z,6.28
2022-09-07T05:01:38.338Z,5.45
2022-09-07T05:03:43.166Z,6.32
2022-09-07T05:05:45.141Z,6.72
2022-09-07T05:07:46.958Z,6.43
2022-09-07T05:09:48.714Z,9.38
2022-09-07T05:11:50.384Z,7.32
2022-09-07T05:13:52.113Z,5.47
2022-09-07T05:15:53.877Z,5.65
2022-09-07T05:17:55.913Z,5.65
2022-09-07T05:20:02.328Z,7.07
2022-09-07T05:22:04.044Z,7.45
2022-09-07T05:24:07.172Z,6.85
2022-09-07T05:26:10.668Z,6.70
2022-09-07T05:28:19.534Z,6.03
2022-09-07T05:32:45.622Z,9.27
2022-09-07T05:34:49.663Z,5.78
2022-09-07T05:36:52.534Z,7.72
2022-09-07T05:38:58.110Z,9.07
2022-09-07T05:40:59.876Z,5.93
2022-09-07T05:43:05.571Z,7.75
2022-09-07T05:45:07.744Z,5.45
2022-09-07T05:47:09.367Z,6.80
2022-09-07T05:49:11.102Z,5.72
2022-09-07T05:51:16.225Z,6.20
2022-09-07T05:53:21.464Z,8.05
2022-09-07T05:55:32.188Z,5.55
2022-09-07T05:57:36.372Z,6.07
2022-09-07T05:59:38.464Z,5.78
2022-09-07T06:01:40.053Z,5.95
2022-09-07T06:03:45.564Z,5.07
2022-09-07T06:05:47.084Z,6.55
2022-09-07T06:07:48.714Z,4.63
2022-09-07T06:12:22.378Z,5.00
2022-09-07T06:14:23.915Z,5.13
2022-09-07T06:16:28.618Z,6.55
2022-09-07T06:18:31.988Z,6.15
2022-09-07T06:20:33.696Z,6.57
2022-09-07T06:22:38.380Z,5.50
2022-09-07T06:24:40.013Z,5.97
2022-09-07T06:26:41.721Z,5.40
2022-09-07T06:28:48.962Z,5.43
2022-09-07T06:30:51.261Z,5.15
2022-09-07T06:32:52.947Z,5.45
2022-09-07T06:34:54.543Z,6.15
2022-09-07T06:36:56.634Z,4.68
2022-09-07T06:39:03.365Z,4.40
2022-09-07T06:43:33.275Z,5.43
2022-09-07T06:45:42.769Z,9.82
2022-09-07T06:47:45.488Z,5.03
2022-09-07T06:49:47.440Z,6.13
2022-09-07T06:51:49.614Z,5.90
2022-09-07T06:56:19.284Z,4.50
2022-09-07T06:58:24.897Z,4.78
2022-09-07T07:00:26.660Z,4.43
2022-09-07T07:02:28.253Z,5.07
2022-09-07T07:04:30.018Z,5.88
2022-09-07T07:06:40.633Z,5.88
2022-09-07T07:08:44.523Z,4.93
2022-09-07T07:10:46.411Z,6.63
2022-09-07T07:12:47.930Z,5.03
2022-09-07T07:14:49.781Z,4.70
2022-09-07T07:16:56.775Z,6.50
2022-09-07T07:18:58.470Z,5.18
2022-09-07T07:21:11.696Z,5.97
2022-09-07T07:23:13.500Z,4.85
2022-09-07T07:25:15.294Z,6.63
2022-09-07T07:27:17.547Z,8.88
2022-09-07T07:29:19.176Z,5.25
2022-09-07T07:31:23.643Z,6.72
2022-09-07T07:33:30.504Z,6.90
2022-09-07T07:35:35.430Z,5.03
2022-09-07T07:37:37.282Z,6.40
2022-09-07T07:42:03.104Z,5.15
2022-09-07T07:44:06.674Z,4.40
2022-09-07T07:46:16.216Z,4.70
2022-09-07T07:48:17.748Z,6.03
2022-09-07T07:50:37.260Z,6.00
2022-09-07T07:52:50.480Z,5.68
2022-09-07T07:54:52.433Z,4.43
2022-09-07T07:56:54.051Z,4.10
2022-09-07T07:58:55.804Z,7.35
2022-09-07T08:01:06.061Z,4.88
2022-09-07T08:03:07.666Z,4.95
2022-09-07T08:05:12.024Z,9.15
2022-09-07T08:07:19.763Z,6.07
2022-09-07T08:09:21.402Z,4.07
2022-09-07T08:11:25.224Z,5.20
2022-09-07T08:13:33.861Z,4.47
2022-09-07T08:15:47.534Z,4.97
2022-09-07T08:17:50.327Z,5.15
2022-09-07T08:19:52.491Z,4.28
2022-09-07T08:21:54.241Z,5.18
2022-09-07T08:23:55.841Z,4.82
2022-09-07T08:25:58.951Z,4.93
2022-09-07T08:28:04.588Z,4.40
2022-09-07T08:30:10.618Z,5.50
2022-09-07T08:32:12.316Z,6.15
2022-09-07T08:34:13.936Z,4.68
2022-09-07T08:36:20.587Z,3.83
2022-09-07T08:38:22.337Z,4.30
2022-09-07T08:40:24.010Z,4.70
2022-09-07T08:43:00.875Z,4.55
2022-09-07T08:45:17.510Z,5.88
2022-09-07T08:47:35.112Z,4.18
2022-09-07T08:50:15.472Z,4.97
2022-09-07T08:52:25.868Z,4.68
2022-09-07T08:54:29.569Z,4.60
2022-09-07T08:56:35.687Z,3.53
2022-09-07T08:58:53.399Z,4.22
2022-09-07T09:01:30.797Z,4.82
2022-09-07T09:03:33.054Z,4.05
2022-09-07T09:06:00.271Z,4.20
2022-09-07T09:08:15.126Z,3.88
2022-09-07T09:10:23.176Z,6.88
2022-09-07T09:12:38.063Z,4.78
2022-09-07T09:15:03.078Z,4.28
2022-09-07T09:17:30.735Z,3.10
2022-09-07T09:19:39.088Z,4.28
2022-09-07T09:21:43.029Z,3.60
2022-09-07T09:23:48.435Z,4.13
2022-09-07T09:25:55.789Z,5.93
2022-09-07T09:28:03.870Z,4.50
2022-09-07T09:30:18.086Z,4.68
2022-09-07T09:32:45.045Z,5.72
2022-09-07T09:35:19.574Z,5.15
2022-09-07T09:37:33.886Z,4.28
2022-09-07T09:39:37.753Z,4.13
2022-09-07T09:41:39.381Z,5.32
2022-09-07T09:43:55.301Z,4.88
2022-09-07T09:46:16.926Z,4.15
2022-09-07T09:48:26.770Z,4.10
2022-09-07T09:53:01.006Z,3.88
2022-09-07T09:55:33.310Z,3.58
2022-09-07T10:00:29.289Z,2.28
2022-09-07T10:05:03.601Z,1.50
2022-09-07T10:07:22.404Z,3.03
2022-09-07T10:09:37.579Z,3.35
2022-09-07T10:14:26.652Z,3.28
2022-09-07T10:16:42.390Z,3.65
2022-09-07T10:18:58.452Z,2.03
2022-09-07T10:21:24.748Z,2.25
2022-09-07T10:23:27.454Z,2.50
2022-09-07T10:25:37.854Z,3.85
2022-09-07T10:27:40.745Z,3.55
2022-09-07T10:29:42.790Z,3.88
2022-09-07T10:31:57.862Z,2.10
2022-09-07T10:34:26.647Z,2.90
2022-09-07T10:36:57.237Z,2.33
2022-09-07T10:39:06.328Z,2.75
2022-09-07T10:41:11.540Z,4.70
2022-09-07T10:43:22.377Z,3.45
2022-09-07T10:45:28.808Z,3.53
2022-09-07T10:48:04.118Z,3.80
2022-09-07T10:50:32.495Z,4.40
2022-09-07T10:52:52.330Z,4.32
2022-09-07T10:55:00.924Z,2.88
2022-09-07T10:57:09.383Z,1.95
2022-09-07T10:59:26.533Z,4.43
2022-09-07T11:01:57.654Z,2.63
2022-09-07T11:04:28.194Z,2.13
2022-09-07T11:06:37.551Z,3.20
2022-09-07T11:09:22.114Z,2.72
2022-09-07T11:14:16.184Z,3.38
2022-09-07T11:19:34.950Z,3.33
2022-09-07T11:21:56.059Z,2.20
2022-09-07T11:23:58.353Z,2.40
2022-09-07T11:26:18.320Z,3.03
2022-09-07T11:28:43.990Z,2.75
2022-09-07T11:30:53.793Z,2.03
2022-09-07T11:33:04.329Z,3.33
2022-09-07T11:35:19.262Z,4.32
2022-09-07T11:37:29.980Z,4.30
2022-09-07T11:39:41.373Z,2.40
2022-09-07T11:41:54.076Z,2.55
2022-09-07T11:44:05.939Z,2.22
2022-09-07T11:46:23.531Z,2.05
2022-09-07T11:48:36.765Z,2.72
2022-09-07T11:50:48.918Z,2.50
2022-09-07T11:53:06.725Z,4.07
2022-09-07T11:55:25.687Z,3.20
2022-09-07T11:57:37.023Z,4.85
2022-09-07T12:00:11.525Z,4.03
2022-09-07T12:02:58.320Z,3.13
2022-09-07T12:05:23.143Z,3.95
2022-09-07T12:07:35.395Z,1.60
2022-09-07T12:10:23.143Z,2.28
2022-09-07T12:12:50.792Z,2.75
2022-09-07T12:15:09.907Z,3.13
2022-09-07T12:17:23.731Z,4.60
2022-09-07T12:19:27.854Z,1.77
2022-09-07T12:21:41.711Z,4.03
2022-09-07T12:23:46.343Z,4.05
2022-09-07T12:25:49.519Z,2.63
2022-09-07T12:27:52.710Z,3.65
2022-09-07T12:29:57.175Z,3.63
2022-09-07T12:32:53.505Z,3.90
2022-09-07T12:34:32.434Z,2.38
2022-09-07T12:36:34.000Z,2.97
2022-09-07T12:39:08.933Z,7.70
2022-09-07T12:41:24.618Z,3.22
2022-09-07T12:43:44.558Z,4.25
2022-09-07T12:45:46.325Z,2.90
2022-09-07T12:47:57.241Z,3.15
2022-09-07T12:50:29.441Z,2.60
2022-09-07T12:52:39.896Z,3.55
2022-09-07T12:55:27.108Z,2.90
2022-09-07T12:57:42.064Z,2.28
2022-09-07T12:59:54.602Z,2.67
2022-09-07T13:02:35.588Z,4.80
2022-09-07T13:04:50.318Z,3.10
2022-09-07T13:07:13.815Z,1.88
2022-09-07T13:09:31.315Z,3.47
2022-09-07T13:11:40.877Z,3.03
2022-09-07T13:14:10.761Z,4.25
2022-09-07T13:16:15.487Z,1.95
2022-09-07T13:18:26.056Z,1.67
2022-09-07T13:20:36.092Z,3.28
2022-09-07T13:22:40.938Z,2.03
2022-09-07T13:24:52.711Z,2.30
2022-09-07T13:27:01.941Z,2.97
2022-09-07T13:29:13.878Z,2.83
2022-09-07T13:31:42.486Z,1.95
2022-09-07T13:33:51.830Z,1.88
2022-09-07T13:36:09.233Z,2.38
2022-09-07T13:38:12.355Z,2.20
2022-09-07T13:40:18.777Z,3.28
2022-09-07T13:42:29.083Z,2.63
2022-09-07T13:44:33.403Z,2.72
2022-09-07T13:46:45.687Z,2.25
2022-09-07T13:48:56.144Z,2.20
2022-09-07T13:51:13.241Z,3.53
2022-09-07T13:53:52.469Z,2.50
2022-09-07T13:56:09.285Z,2.40
2022-09-07T13:58:18.105Z,2.55
2022-09-07T14:00:20.253Z,2.55
2022-09-07T14:02:29.804Z,1.92
2022-09-07T14:04:38.724Z,2.13
2022-09-07T14:06:40.329Z,2.03
2022-09-07T14:08:47.363Z,1.60
2022-09-07T14:10:49.020Z,2.67
2022-09-07T14:12:53.969Z,3.97
2022-09-07T14:15:18.243Z,2.85
2022-09-07T14:17:22.819Z,3.35
2022-09-07T14:19:37.983Z,2.63
2022-09-07T14:21:40.121Z,2.80
2022-09-07T14:23:41.815Z,3.38
2022-09-07T14:28:32.160Z,2.65
2022-09-07T14:30:36.975Z,2.45
2022-09-07T14:32:39.023Z,1.45
2022-09-07T14:34:44.584Z,2.78
2022-09-07T14:36:54.806Z,1.88
2022-09-07T14:39:05.389Z,2.28
2022-09-07T14:41:11.750Z,2.28
2022-09-07T14:43:29.926Z,2.65
2022-09-07T14:45:33.729Z,1.98
2022-09-07T14:47:35.448Z,2.15
2022-09-07T14:49:39.895Z,2.10
2022-09-07T14:51:44.317Z,2.13
2022-09-07T14:53:50.976Z,3.08
2022-09-07T14:56:02.117Z,1.75
2022-09-07T14:58:16.023Z,1.38
2022-09-07T15:00:30.625Z,2.20
2022-09-07T15:02:37.534Z,1.73
2022-09-07T15:04:39.411Z,1.20
2022-09-07T15:09:07.206Z,1.88
2022-09-07T15:11:33.164Z,2.38
2022-09-07T15:13:39.268Z,1.98
2022-09-07T15:15:40.992Z,3.97
2022-09-07T15:17:43.393Z,2.95
2022-09-07T15:19:45.583Z,3.40
2022-09-07T15:21:49.998Z,2.97
2022-09-07T15:23:53.980Z,1.60
2022-09-07T15:25:58.544Z,2.05
2022-09-07T15:28:00.402Z,2.55
2022-09-07T15:30:01.952Z,1.30
2022-09-07T15:32:08.969Z,1.98
2022-09-07T15:34:12.999Z,2.47
2022-09-07T15:36:20.649Z,2.17
2022-09-07T15:41:18.533Z,2.25
2022-09-07T15:43:20.654Z,1.80
2022-09-07T15:45:26.721Z,2.35
2022-09-07T15:47:47.493Z,1.90
2022-09-07T15:49:51.391Z,2.08
2022-09-07T15:52:08.666Z,2.05
2022-09-07T15:54:13.213Z,1.17
2022-09-07T15:56:17.290Z,2.65
2022-09-07T15:58:22.009Z,2.17
2022-09-07T16:00:23.714Z,1.65
2022-09-07T16:04:54.930Z,2.33
2022-09-07T16:06:56.491Z,1.85
2022-09-07T16:08:58.055Z,1.48
2022-09-07T16:11:11.280Z,2.95
2022-09-07T16:13:17.861Z,2.63
2022-09-07T16:15:21.913Z,2.58
2022-09-07T16:17:27.278Z,3.50
2022-09-07T16:19:41.118Z,2.75
2022-09-07T16:21:43.079Z,2.30
2022-09-07T16:23:50.445Z,4.45
2022-09-07T16:26:04.164Z,2.13
2022-09-07T16:28:07.088Z,1.90
2022-09-07T16:30:08.996Z,2.70
2022-09-07T16:34:32.915Z,4.53
2022-09-07T16:36:34.508Z,2.55
2022-09-07T16:38:44.497Z,1.70
2022-09-07T16:40:46.615Z,2.63
2022-09-07T16:42:49.755Z,1.88
2022-09-07T16:44:52.991Z,1.73
2022-09-07T16:46:54.990Z,1.80
2022-09-07T16:48:57.132Z,2.22
2022-09-07T16:51:01.987Z,1.38
2022-09-07T16:53:13.343Z,1.35
2022-09-07T16:55:15.458Z,2.25
2022-09-07T16:57:17.876Z,2.17
2022-09-07T16:59:24.363Z,2.00
2022-09-07T17:01:28.898Z,1.40
2022-09-07T17:03:37.172Z,1.60
2022-09-07T17:05:43.048Z,1.48
2022-09-07T17:07:44.593Z,3.28
2022-09-07T17:09:49.353Z,2.28
2022-09-07T17:11:51.165Z,1.50
2022-09-07T17:13:54.037Z,1.77
2022-09-07T17:16:02.218Z,1.73
2022-09-07T17:18:04.100Z,1.77
2022-09-07T17:20:06.521Z,2.17
2022-09-07T17:22:10.630Z,1.95
2022-09-07T17:24:15.004Z,4.30
2022-09-07T17:26:18.946Z,2.10
2022-09-07T17:28:20.912Z,1.50
2022-09-07T17:30:24.756Z,2.03
2022-09-07T17:32:28.660Z,3.42
2022-09-07T17:34:32.145Z,3.05
2022-09-07T17:36:34.419Z,2.05
2022-09-07T17:41:12.993Z,2.33
2022-09-07T17:45:36.795Z,1.80
2022-09-07T17:47:38.774Z,2.17
2022-09-07T17:49:40.465Z,2.00
2022-09-07T17:51:42.464Z,3.53
2022-09-07T17:53:45.751Z,2.75
2022-09-07T17:55:47.750Z,2.05
2022-09-07T17:57:49.579Z,2.72
2022-09-07T18:02:13.776Z,2.30
2022-09-07T18:04:15.504Z,2.78
2022-09-07T18:06:17.776Z,1.70
2022-09-07T18:08:19.422Z,3.05
2022-09-07T18:10:21.699Z,2.65
2022-09-07T18:12:23.979Z,3.63
2022-09-07T18:14:25.718Z,3.50
2022-09-07T18:16:33.694Z,4.05
2022-09-07T18:18:35.403Z,4.15
2022-09-07T18:20:37.004Z,3.72
2022-09-07T18:22:38.767Z,3.88
2022-09-07T18:24:40.623Z,3.42
2022-09-07T18:26:42.862Z,4.30
2022-09-07T18:31:11.816Z,4.15
2022-09-07T18:33:13.474Z,4.47
2022-09-07T18:35:15.129Z,4.78
2022-09-07T18:37:16.902Z,5.95
2022-09-07T18:39:18.677Z,3.85
2022-09-07T18:41:21.148Z,5.65
2022-09-07T18:43:22.778Z,7.10
2022-09-07T18:45:27.798Z,5.78
2022-09-07T18:47:29.883Z,6.75
2022-09-07T18:49:31.596Z,6.25
2022-09-07T18:52:51.578Z,5.00
2022-09-07T18:53:55.518Z,6.03
2022-09-07T18:56:10.628Z,3.50
2022-09-07T18:58:13.163Z,3.17
2022-09-07T19:00:15.013Z,4.03
2022-09-07T19:02:19.198Z,2.55
2022-09-07T19:04:21.377Z,3.90
2022-09-07T19:06:25.031Z,2.67
2022-09-07T19:08:30.332Z,3.67
2022-09-07T19:10:36.527Z,4.47
2022-09-07T19:12:40.635Z,5.85
2022-09-07T19:14:44.221Z,4.80
2022-09-07T19:16:45.915Z,4.72
2022-09-07T19:18:47.423Z,4.97
2022-09-07T19:20:49.101Z,3.83
2022-09-07T19:22:50.716Z,3.60
2022-09-07T19:24:52.182Z,4.68
2022-09-07T19:26:59.515Z,4.85
2022-09-07T19:29:15.355Z,3.30
2022-09-07T19:31:20.788Z,2.25
2022-09-07T19:33:22.966Z,2.70
2022-09-07T19:35:24.576Z,2.15
2022-09-07T19:37:27.522Z,3.25
2022-09-07T19:39:29.255Z,3.67
2022-09-07T19:41:31.604Z,3.10
2022-09-07T19:43:34.345Z,3.33
2022-09-07T19:45:40.614Z,2.78
2022-09-07T19:47:42.544Z,2.70
2022-09-07T19:49:44.268Z,3.90
2022-09-07T19:51:46.541Z,2.38
2022-09-07T19:53:48.089Z,4.13
2022-09-07T19:55:50.853Z,2.88
2022-09-07T19:57:52.397Z,3.97
2022-09-07T19:59:56.684Z,3.45
2022-09-07T20:01:58.265Z,5.07
2022-09-07T20:04:03.323Z,2.60
2022-09-07T20:06:09.962Z,3.40
2022-09-07T20:08:12.645Z,3.40
2022-09-07T20:10:14.396Z,2.67
2022-09-07T20:12:17.750Z,5.10
2022-09-07T20:14:19.952Z,4.05
2022-09-07T20:16:21.726Z,2.33
2022-09-07T20:18:25.166Z,4.18
2022-09-07T20:20:26.836Z,4.07
2022-09-07T20:22:28.981Z,2.78
2022-09-07T20:24:35.410Z,2.78
2022-09-07T20:26:37.213Z,3.38
2022-09-07T20:28:39.775Z,2.38
2022-09-07T20:30:44.458Z,3.53
2022-09-07T20:32:45.829Z,2.05
2022-09-07T20:34:47.283Z,2.13
2022-09-07T20:36:49.953Z,3.35
2022-09-07T20:38:53.854Z,2.22
2022-09-07T20:41:00.862Z,2.10
2022-09-07T20:43:04.814Z,2.85
2022-09-07T20:45:10.043Z,3.33
2022-09-07T20:47:11.763Z,3.22
2022-09-07T20:49:13.312Z,3.45
2022-09-07T20:51:20.883Z,3.40
2022-09-07T20:53:22.827Z,2.67
2022-09-07T20:55:24.821Z,3.88
2022-09-07T20:57:26.339Z,5.38
2022-09-07T20:59:28.031Z,3.05
2022-09-07T21:01:31.660Z,6.03
2022-09-07T21:03:33.351Z,2.58
2022-09-07T21:05:38.821Z,2.22
2022-09-07T21:07:41.314Z,3.42
2022-09-07T21:09:42.774Z,5.00
2022-09-07T21:11:49.000Z,3.15
2022-09-07T21:14:01.955Z,2.50
2022-09-07T21:16:09.448Z,2.58
2022-09-07T21:18:20.181Z,4.38
2022-09-07T21:20:21.818Z,2.30
2022-09-07T21:22:25.233Z,2.97
2022-09-07T21:24:27.080Z,3.50
2022-09-07T21:26:32.691Z,2.53
2022-09-07T21:28:39.471Z,2.63
2022-09-07T21:30:41.170Z,2.88
2022-09-07T21:32:42.940Z,1.95
2022-09-07T21:34:44.450Z,5.43
2022-09-07T21:36:48.342Z,8.82
2022-09-07T21:38:50.135Z,16.33
2022-09-07T21:40:54.071Z,17.27
2022-09-07T21:42:55.532Z,12.63
2022-09-07T21:44:56.993Z,14.75
2022-09-07T21:46:58.616Z,11.25
2022-09-07T21:49:00.610Z,10.52
2022-09-07T21:51:03.077Z,8.27
2022-09-07T21:53:04.593Z,6.15
2022-09-07T21:55:06.809Z,5.47
2022-09-07T21:57:08.852Z,4.28
2022-09-07T21:59:10.894Z,4.47
2022-09-07T22:01:19.658Z,4.18
2022-09-07T22:03:26.422Z,3.08
2022-09-07T22:05:28.240Z,4.03
2022-09-07T22:07:29.716Z,6.97
2022-09-07T22:09:31.485Z,13.95
2022-09-07T22:11:33.397Z,12.23
2022-09-07T22:13:35.226Z,9.13
2022-09-07T22:15:39.003Z,8.25
2022-09-07T22:17:46.181Z,6.20
2022-09-07T22:19:51.047Z,5.70
2022-09-07T22:21:53.722Z,4.28
2022-09-07T22:23:58.439Z,5.78
2022-09-07T22:26:00.435Z,3.33
2022-09-07T22:28:02.107Z,2.95
2022-09-07T22:30:04.472Z,2.30
2022-09-07T22:32:07.298Z,3.42
2022-09-07T22:34:11.509Z,2.85
2022-09-07T22:36:18.024Z,4.13
2022-09-07T22:38:19.655Z,3.60
2022-09-07T22:40:21.215Z,1.85
2022-09-07T22:42:22.884Z,2.20
2022-09-07T22:44:26.800Z,3.60
2022-09-07T22:46:33.453Z,2.75
2022-09-07T22:48:35.430Z,1.92
2022-09-07T22:50:37.183Z,4.00
2022-09-07T22:52:38.930Z,3.78
2022-09-07T22:54:40.494Z,2.13
2022-09-07T22:56:42.667Z,2.47
2022-09-07T22:58:50.211Z,2.75
2022-09-07T23:00:52.905Z,3.05
2022-09-07T23:02:54.501Z,5.13
2022-09-07T23:04:57.838Z,2.35
2022-09-07T23:06:59.323Z,2.42
2022-09-07T23:09:04.248Z,1.95
2022-09-07T23:11:06.097Z,2.45
2022-09-07T23:13:15.029Z,2.05
2022-09-07T23:15:18.703Z,2.85
2022-09-07T23:17:20.284Z,2.20
2022-09-07T23:19:21.874Z,2.58
2022-09-07T23:21:23.623Z,5.07
2022-09-07T23:23:28.801Z,2.33
2022-09-07T23:25:30.611Z,2.60
2022-09-07T23:27:35.237Z,1.80
2022-09-07T23:29:37.006Z,3.85
2022-09-07T23:31:40.171Z,2.42
2022-09-07T23:33:44.645Z,2.97
2022-09-07T23:36:01.974Z,5.15
2022-09-07T23:38:03.588Z,3.00
2022-09-07T23:40:05.705Z,4.20
2022-09-07T23:42:07.630Z,2.00
2022-09-07T23:44:09.461Z,2.45
2022-09-07T23:46:12.228Z,2.42
2022-09-07T23:48:14.171Z,3.80
2022-09-07T23:50:16.037Z,1.95
2022-09-07T23:52:18.123Z,3.72
2022-09-07T23:54:19.752Z,2.65
2022-09-07T23:56:24.452Z,3.35
2022-09-07T23:58:26.475Z,3.67
